createdAt,value
2018-08-23T00:02:23.711Z,36.43
2018-08-23T00:04:54.732Z,39.27
2018-08-23T00:07:23.456Z,38.50
2018-08-23T00:09:52.840Z,38.20
2018-08-23T00:12:25.476Z,39.00
2018-08-23T00:14:54.245Z,38.20
2018-08-23T00:17:23.346Z,39.53
2018-08-23T00:19:52.522Z,37.37
2018-08-23T00:22:27.560Z,37.30
2018-08-23T00:25:00.610Z,36.60
2018-08-23T00:27:38.786Z,35.20
2018-08-23T00:30:11.396Z,38.37
2018-08-23T00:32:40.524Z,36.07
2018-08-23T00:35:15.009Z,35.80
2018-08-23T00:37:48.395Z,34.27
2018-08-23T00:40:19.090Z,34.20
2018-08-23T00:42:54.309Z,35.13
2018-08-23T00:45:22.561Z,32.57
2018-08-23T00:47:50.836Z,32.20
2018-08-23T00:50:59.076Z,31.83
2018-08-23T00:53:28.582Z,31.40
2018-08-23T00:56:13.087Z,32.17
2018-08-23T00:58:44.566Z,33.23
2018-08-23T01:01:13.598Z,30.70
2018-08-23T01:03:42.227Z,31.87
2018-08-23T01:06:10.498Z,32.80
2018-08-23T01:08:38.734Z,32.00
2018-08-23T01:11:08.138Z,29.53
2018-08-23T01:13:36.424Z,31.13
2018-08-23T01:16:04.683Z,28.10
2018-08-23T01:18:32.931Z,30.90
2018-08-23T01:21:06.302Z,29.70
2018-08-23T01:23:34.826Z,27.33
2018-08-23T01:26:04.154Z,26.83
2018-08-23T01:28:32.685Z,27.83
2018-08-23T01:31:17.219Z,26.20
2018-08-23T01:33:45.852Z,25.60
2018-08-23T01:36:16.970Z,25.83
2018-08-23T01:38:45.265Z,26.87
2018-08-23T01:41:13.524Z,24.70
2018-08-23T01:43:42.333Z,27.10
2018-08-23T01:46:10.610Z,25.30
2018-08-23T01:48:40.010Z,25.60
2018-08-23T01:51:08.402Z,26.93
2018-08-23T01:53:38.787Z,25.60
2018-08-23T01:56:07.718Z,26.00
2018-08-23T01:58:36.006Z,26.20
2018-08-23T02:01:13.652Z,27.57
2018-08-23T02:03:42.234Z,26.80
2018-08-23T02:06:10.535Z,26.50
2018-08-23T02:08:38.827Z,26.77
2018-08-23T02:11:07.338Z,27.63
2018-08-23T02:13:35.637Z,26.60
2018-08-23T02:16:04.357Z,26.40
2018-08-23T02:18:33.458Z,24.97
2018-08-23T02:21:07.898Z,28.17
2018-08-23T02:23:45.592Z,26.70
2018-08-23T02:26:14.199Z,26.53
2018-08-23T02:28:44.866Z,25.63
2018-08-23T02:31:13.106Z,27.30
2018-08-23T02:33:41.398Z,28.30
2018-08-23T02:36:16.121Z,29.33
2018-08-23T02:38:45.568Z,29.13
2018-08-23T02:41:13.829Z,28.97
2018-08-23T02:43:42.677Z,28.73
2018-08-23T02:46:10.971Z,29.43
2018-08-23T02:48:39.222Z,30.13
2018-08-23T02:51:07.495Z,29.50
2018-08-23T02:53:37.375Z,31.63
2018-08-23T02:56:10.287Z,30.60
2018-08-23T02:58:47.953Z,29.20
2018-08-23T03:01:16.262Z,33.20
2018-08-23T03:04:00.025Z,31.27
2018-08-23T03:07:02.727Z,30.07
2018-08-23T03:09:36.255Z,30.13
2018-08-23T03:12:07.722Z,30.50
2018-08-23T03:14:36.153Z,28.97
2018-08-23T03:17:22.292Z,31.10
2018-08-23T03:20:05.101Z,31.30
2018-08-23T03:22:34.195Z,31.63
2018-08-23T03:25:04.222Z,31.83
2018-08-23T03:27:32.713Z,33.77
2018-08-23T03:30:01.919Z,29.47
2018-08-23T03:32:30.614Z,31.90
2018-08-23T03:34:59.279Z,30.73
2018-08-23T03:37:27.570Z,31.53
2018-08-23T03:39:56.335Z,33.40
2018-08-23T03:42:25.022Z,31.50
2018-08-23T03:44:54.422Z,31.43
2018-08-23T03:47:23.026Z,33.37
2018-08-23T03:49:51.451Z,34.13
2018-08-23T03:52:27.948Z,35.73
2018-08-23T03:54:58.411Z,34.00
2018-08-23T03:57:32.136Z,34.20
2018-08-23T04:00:00.395Z,34.00
2018-08-23T04:02:28.618Z,33.30
2018-08-23T04:05:04.496Z,34.17
2018-08-23T04:07:32.770Z,35.43
2018-08-23T04:10:01.043Z,33.50
2018-08-23T04:12:29.362Z,35.50
2018-08-23T04:15:13.046Z,34.70
2018-08-23T04:17:41.267Z,35.90
2018-08-23T04:20:09.574Z,36.20
2018-08-23T04:22:37.890Z,37.80
2018-08-23T04:25:06.381Z,36.10
2018-08-23T04:27:34.979Z,34.90
2018-08-23T04:30:03.306Z,34.13
2018-08-23T04:32:36.949Z,34.70
2018-08-23T04:35:09.733Z,35.77
2018-08-23T04:37:38.143Z,35.23
2018-08-23T04:40:07.308Z,35.27
2018-08-23T04:42:36.120Z,34.90
2018-08-23T04:45:08.762Z,34.20
2018-08-23T04:47:43.906Z,35.97
2018-08-23T04:50:12.507Z,34.53
2018-08-23T04:52:40.847Z,32.97
2018-08-23T04:55:09.160Z,34.00
2018-08-23T04:57:37.494Z,33.40
2018-08-23T05:00:06.215Z,32.20
2018-08-23T05:02:34.803Z,33.13
2018-08-23T05:05:03.056Z,31.63
2018-08-23T05:07:31.291Z,31.67
2018-08-23T05:09:59.539Z,32.23
2018-08-23T05:12:27.933Z,34.20
2018-08-23T05:14:56.162Z,32.67
2018-08-23T05:17:24.641Z,30.30
2018-08-23T05:19:53.022Z,32.77
2018-08-23T05:22:21.303Z,32.20
2018-08-23T05:24:49.539Z,31.73
2018-08-23T05:27:17.803Z,30.97
2018-08-23T05:29:46.038Z,30.80
2018-08-23T05:32:14.326Z,34.60
2018-08-23T05:34:42.581Z,32.70
2018-08-23T05:37:10.811Z,35.10
2018-08-23T05:39:48.659Z,35.73
2018-08-23T05:42:23.774Z,34.20
2018-08-23T05:44:52.019Z,34.80
2018-08-23T05:47:20.274Z,32.83
2018-08-23T05:49:48.530Z,34.70
2018-08-23T05:52:17.467Z,32.87
2018-08-23T05:54:45.779Z,33.70
2018-08-23T05:57:14.342Z,31.77
2018-08-23T05:59:42.682Z,33.60
2018-08-23T06:02:11.223Z,33.07
2018-08-23T06:04:41.637Z,34.10
2018-08-23T06:07:09.967Z,36.00
2018-08-23T06:09:40.723Z,37.20
2018-08-23T06:12:09.222Z,38.53
2018-08-23T06:14:37.448Z,42.07
2018-08-23T06:17:06.255Z,38.07
2018-08-23T06:19:34.526Z,39.50
2018-08-23T06:22:02.753Z,39.43
2018-08-23T06:24:31.490Z,42.47
2018-08-23T06:27:00.364Z,41.63
2018-08-23T06:29:31.223Z,41.37
2018-08-23T06:32:09.903Z,45.47
2018-08-23T06:34:41.648Z,43.90
2018-08-23T06:37:09.907Z,42.33
2018-08-23T06:39:40.193Z,45.07
2018-08-23T06:42:08.571Z,47.07
2018-08-23T06:44:42.779Z,46.20
2018-08-23T06:47:13.589Z,48.77
2018-08-23T06:49:42.942Z,49.17
2018-08-23T06:52:12.923Z,47.17
2018-08-23T06:54:41.695Z,47.57
2018-08-23T06:57:10.411Z,49.03
2018-08-23T06:59:39.018Z,48.33
2018-08-23T07:02:07.376Z,50.40
2018-08-23T07:04:35.638Z,49.30
2018-08-23T07:07:03.939Z,48.83
2018-08-23T07:09:33.065Z,50.60
2018-08-23T07:12:06.607Z,49.70
2018-08-23T07:14:35.251Z,49.20
2018-08-23T07:17:15.130Z,48.63
2018-08-23T07:19:43.612Z,48.30
2018-08-23T07:22:12.251Z,49.30
2018-08-23T07:24:43.914Z,52.03
2018-08-23T07:27:13.302Z,51.07
2018-08-23T07:29:44.692Z,45.83
2018-08-23T07:32:19.202Z,47.00
2018-08-23T07:35:01.941Z,45.17
2018-08-23T07:37:31.110Z,44.50
2018-08-23T07:40:04.902Z,46.83
2018-08-23T07:42:33.912Z,47.80
2018-08-23T07:45:02.680Z,44.83
2018-08-23T07:47:31.586Z,44.00
2018-08-23T07:50:00.996Z,51.23
2018-08-23T07:52:30.583Z,51.80
2018-08-23T07:54:58.902Z,49.10
2018-08-23T07:57:30.866Z,52.63
2018-08-23T08:00:00.455Z,51.40
2018-08-23T08:02:29.234Z,50.50
2018-08-23T08:04:58.262Z,57.43
2018-08-23T08:07:27.434Z,55.77
2018-08-23T08:09:56.430Z,60.93
2018-08-23T08:12:38.456Z,61.27
2018-08-23T08:15:08.606Z,58.80
2018-08-23T08:17:36.756Z,56.97
2018-08-23T08:20:06.264Z,59.17
2018-08-23T08:22:34.546Z,57.40
2018-08-23T08:25:08.971Z,53.10
2018-08-23T08:27:37.805Z,54.23
2018-08-23T08:30:08.362Z,53.90
2018-08-23T08:32:36.621Z,57.93
2018-08-23T08:35:04.923Z,51.00
2018-08-23T08:37:33.168Z,53.00
2018-08-23T08:40:01.453Z,53.90
2018-08-23T08:42:32.188Z,56.93
2018-08-23T08:45:17.014Z,54.20
2018-08-23T08:47:46.265Z,54.57
2018-08-23T08:50:14.636Z,57.23
2018-08-23T08:52:43.002Z,49.47
2018-08-23T08:55:13.643Z,48.87
2018-08-23T08:57:43.328Z,45.07
2018-08-23T09:00:11.711Z,46.53
2018-08-23T09:02:39.986Z,39.73
2018-08-23T09:05:09.131Z,39.70
2018-08-23T09:07:38.446Z,44.07
2018-08-23T09:10:06.846Z,46.00
2018-08-23T09:12:39.306Z,52.80
2018-08-23T09:15:07.662Z,39.60
2018-08-23T09:17:42.271Z,31.80
2018-08-23T09:20:18.628Z,28.70
2018-08-23T09:22:50.527Z,29.97
2018-08-23T09:25:28.647Z,26.70
2018-08-23T09:27:58.169Z,20.90
2018-08-23T09:30:27.886Z,21.43
2018-08-23T09:32:56.420Z,19.37
2018-08-23T09:35:28.905Z,21.13
2018-08-23T09:37:58.890Z,21.13
2018-08-23T09:40:27.887Z,20.67
2018-08-23T09:42:56.653Z,18.57
2018-08-23T09:45:24.919Z,22.70
2018-08-23T09:47:53.486Z,18.07
2018-08-23T09:50:21.937Z,16.03
2018-08-23T09:52:50.695Z,17.03
2018-08-23T09:55:20.124Z,15.30
2018-08-23T09:57:48.552Z,14.10
2018-08-23T10:00:22.230Z,14.80
2018-08-23T10:02:55.856Z,13.33
2018-08-23T10:05:29.749Z,13.30
2018-08-23T10:08:03.402Z,11.80
2018-08-23T10:10:37.250Z,13.90
2018-08-23T10:13:10.947Z,10.93
2018-08-23T10:15:45.190Z,10.13
2018-08-23T10:18:18.882Z,8.87
2018-08-23T10:20:52.827Z,8.40
2018-08-23T10:23:22.718Z,9.87
2018-08-23T10:25:52.175Z,9.13
2018-08-23T10:28:23.777Z,10.23
2018-08-23T10:30:52.439Z,11.40
2018-08-23T10:33:20.915Z,9.97
2018-08-23T10:35:56.539Z,8.10
2018-08-23T10:38:26.703Z,7.33
2018-08-23T10:40:59.273Z,6.37
2018-08-23T10:43:32.969Z,10.77
2018-08-23T10:46:03.882Z,8.10
2018-08-23T10:48:32.278Z,8.43
2018-08-23T10:51:00.585Z,10.83
2018-08-23T10:53:28.900Z,8.80
2018-08-23T10:55:57.312Z,9.07
2018-08-23T10:58:25.704Z,9.30
2018-08-23T11:00:53.952Z,8.97
2018-08-23T11:03:22.230Z,7.57
2018-08-23T11:05:50.603Z,8.33
2018-08-23T11:08:19.802Z,6.77
2018-08-23T11:10:53.442Z,5.57
2018-08-23T11:13:27.022Z,5.97
2018-08-23T11:16:00.834Z,6.03
2018-08-23T11:18:34.526Z,5.30
2018-08-23T11:21:03.734Z,4.90
2018-08-23T11:23:32.301Z,5.20
2018-08-23T11:26:00.575Z,5.00
2018-08-23T11:28:28.865Z,5.97
2018-08-23T11:31:01.631Z,6.43
2018-08-23T11:33:29.912Z,4.43
2018-08-23T11:35:58.319Z,4.80
2018-08-23T11:38:26.635Z,3.77
2018-08-23T11:40:54.890Z,4.97
2018-08-23T11:43:23.294Z,3.90
2018-08-23T11:46:01.750Z,3.77
2018-08-23T11:48:30.326Z,4.00
2018-08-23T11:50:58.620Z,4.43
2018-08-23T11:53:27.037Z,3.80
2018-08-23T11:55:55.249Z,4.73
2018-08-23T11:58:23.572Z,4.53
2018-08-23T12:00:51.814Z,4.70
2018-08-23T12:03:21.035Z,5.00
2018-08-23T12:05:49.600Z,4.30
2018-08-23T12:08:18.078Z,4.73
2018-08-23T12:10:46.352Z,3.83
2018-08-23T12:13:14.729Z,3.70
2018-08-23T12:15:45.557Z,4.00
2018-08-23T12:18:17.661Z,3.43
2018-08-23T12:21:13.924Z,4.03
2018-08-23T12:23:55.644Z,3.13
2018-08-23T12:26:34.451Z,3.10
2018-08-23T12:29:14.365Z,3.90
2018-08-23T12:34:56.189Z,2.80
2018-08-23T12:40:18.236Z,3.33
2018-08-23T12:46:19.169Z,3.53
2018-08-23T12:51:41.062Z,4.30
2018-08-23T12:54:11.084Z,4.50
2018-08-23T12:56:51.044Z,3.53
2018-08-23T12:59:25.027Z,4.80
2018-08-23T13:04:50.131Z,4.17
2018-08-23T13:12:49.931Z,4.80
2018-08-23T13:15:29.356Z,5.10
2018-08-23T13:18:13.103Z,5.10
2018-08-23T13:20:43.671Z,5.47
2018-08-23T13:23:14.794Z,5.50
2018-08-23T13:25:51.696Z,6.00
2018-08-23T13:28:20.435Z,6.87
2018-08-23T13:30:52.831Z,5.70
2018-08-23T13:33:25.788Z,6.17
2018-08-23T13:35:57.039Z,5.73
2018-08-23T13:38:29.347Z,5.33
2018-08-23T13:40:58.429Z,5.90
2018-08-23T13:43:28.597Z,4.93
2018-08-23T13:46:01.226Z,6.00
2018-08-23T13:48:32.866Z,7.43
2018-08-23T13:51:05.350Z,6.67
2018-08-23T13:53:34.164Z,7.90
2018-08-23T13:56:08.915Z,7.13
2018-08-23T13:58:39.643Z,7.00
2018-08-23T14:01:15.239Z,6.53
2018-08-23T14:03:51.029Z,6.00
2018-08-23T14:06:21.213Z,6.20
2018-08-23T14:08:58.100Z,6.33
2018-08-23T14:11:27.404Z,6.07
2018-08-23T14:13:57.640Z,6.67
2018-08-23T14:16:27.304Z,7.10
2018-08-23T14:22:03.208Z,6.20
2018-08-23T14:24:36.185Z,6.40
2018-08-23T14:27:12.600Z,7.07
2018-08-23T14:29:47.630Z,7.20
2018-08-23T14:32:20.981Z,6.57
2018-08-23T14:34:51.793Z,7.60
2018-08-23T14:42:28.614Z,8.60
2018-08-23T14:50:56.869Z,8.57
2018-08-23T15:01:24.838Z,10.03
2018-08-23T15:07:20.627Z,8.13
2018-08-23T15:10:23.634Z,8.90
2018-08-23T15:16:12.204Z,9.93
2018-08-23T15:20:39.988Z,9.40
2018-08-23T16:09:19.731Z,6.20
2018-08-23T16:11:55.075Z,6.73
2018-08-23T16:14:35.889Z,5.90
2018-08-23T16:17:15.159Z,6.50
2018-08-23T17:28:26.202Z,8.03
2018-08-23T18:16:54.170Z,5.47
2018-08-23T18:19:22.511Z,5.00
2018-08-23T18:21:51.188Z,5.10
2018-08-23T18:24:19.659Z,4.33
2018-08-23T18:26:48.013Z,4.80
2018-08-23T18:29:16.327Z,4.10
2018-08-23T18:31:44.571Z,4.27
2018-08-23T18:34:12.914Z,4.57
2018-08-23T18:36:41.176Z,4.50
2018-08-23T18:39:10.920Z,4.87
2018-08-23T18:41:39.346Z,3.40
2018-08-23T18:44:07.820Z,4.47
2018-08-23T18:46:36.389Z,3.93
2018-08-23T18:49:04.800Z,3.60
2018-08-23T18:51:33.054Z,3.60
2018-08-23T18:54:01.541Z,4.00
2018-08-23T18:56:30.325Z,3.90
2018-08-23T18:58:58.803Z,4.03
2018-08-23T19:01:27.070Z,3.40
2018-08-23T19:03:55.430Z,4.20
2018-08-23T19:06:28.977Z,3.60
2018-08-23T19:09:02.317Z,4.00
2018-08-23T19:11:30.652Z,3.33
2018-08-23T19:13:59.024Z,3.60
2018-08-23T19:16:32.658Z,3.00
2018-08-23T19:19:01.012Z,3.20
2018-08-23T19:21:29.267Z,3.30
2018-08-23T19:23:57.547Z,3.40
2018-08-23T19:26:25.926Z,4.47
2018-08-23T19:28:54.241Z,3.90
2018-08-23T19:31:22.594Z,3.93
2018-08-23T19:33:50.894Z,3.43
2018-08-23T19:36:19.462Z,3.63
2018-08-23T19:38:47.746Z,3.57
2018-08-23T19:41:16.076Z,4.00
2018-08-23T19:43:44.323Z,4.37
2018-08-23T19:46:17.890Z,4.53
2018-08-23T19:48:47.766Z,4.00
2018-08-23T19:51:16.035Z,3.53
2018-08-23T19:53:44.288Z,3.47
2018-08-23T19:56:12.531Z,3.70
2018-08-23T19:58:40.916Z,3.87
2018-08-23T20:01:09.211Z,4.13
2018-08-23T20:03:38.557Z,3.83
2018-08-23T20:06:07.193Z,3.77
2018-08-23T20:08:47.502Z,3.53
2018-08-23T20:11:15.778Z,4.00
2018-08-23T20:13:44.083Z,3.73
2018-08-23T20:16:12.409Z,3.37
2018-08-23T20:18:40.736Z,3.40
2018-08-23T20:21:09.014Z,3.20
2018-08-23T20:23:37.297Z,3.37
2018-08-23T20:26:05.880Z,3.80
2018-08-23T20:28:34.234Z,3.20
2018-08-23T20:31:02.845Z,3.20
2018-08-23T20:33:31.121Z,3.00
2018-08-23T20:35:59.367Z,3.43
2018-08-23T20:38:27.650Z,3.37
2018-08-23T20:40:55.926Z,2.90
2018-08-23T20:43:24.183Z,4.00
2018-08-23T20:45:52.459Z,2.87
2018-08-23T20:48:20.881Z,2.63
2018-08-23T20:50:49.175Z,3.30
2018-08-23T20:53:17.512Z,4.20
2018-08-23T20:55:45.811Z,4.20
2018-08-23T20:58:14.137Z,3.37
2018-08-23T21:00:42.382Z,3.57
2018-08-23T21:03:10.630Z,6.33
2018-08-23T21:05:38.898Z,4.10
2018-08-23T21:08:07.202Z,3.63
2018-08-23T21:10:35.495Z,3.97
2018-08-23T21:13:03.826Z,3.23
2018-08-23T21:15:38.784Z,3.30
2018-08-23T21:18:10.000Z,3.33
2018-08-23T21:20:38.724Z,3.87
2018-08-23T21:23:08.179Z,3.80
2018-08-23T21:25:36.598Z,3.60
2018-08-23T21:28:06.337Z,3.83
2018-08-23T21:30:34.560Z,3.80
2018-08-23T21:33:02.790Z,4.07
2018-08-23T21:35:31.087Z,4.27
2018-08-23T21:37:59.415Z,4.33
2018-08-23T21:40:27.965Z,4.37
2018-08-23T21:42:56.281Z,5.40
2018-08-23T21:45:24.943Z,4.60
2018-08-23T21:47:53.202Z,5.27
2018-08-23T21:50:21.521Z,5.00
2018-08-23T21:52:49.860Z,4.30
2018-08-23T21:55:18.797Z,4.10
2018-08-23T21:57:47.048Z,3.80
2018-08-23T22:00:15.692Z,3.87
2018-08-23T22:02:43.971Z,3.40
2018-08-23T22:05:12.353Z,3.63
2018-08-23T22:07:40.601Z,3.10
2018-08-23T22:10:08.910Z,2.80
2018-08-23T22:12:39.114Z,2.20
2018-08-23T22:15:07.387Z,2.47
2018-08-23T22:17:35.880Z,2.43
2018-08-23T22:20:04.358Z,2.80
2018-08-23T22:22:32.589Z,3.97
2018-08-23T22:25:00.858Z,2.73
2018-08-23T22:27:29.110Z,2.17
2018-08-23T22:29:57.414Z,2.57
2018-08-23T22:32:25.720Z,2.37
2018-08-23T22:34:53.999Z,2.27
2018-08-23T22:37:22.237Z,2.67
2018-08-23T22:39:50.496Z,2.80
2018-08-23T22:42:18.737Z,4.67
2018-08-23T22:44:47.019Z,5.43
2018-08-23T22:47:15.319Z,3.33
2018-08-23T22:49:43.632Z,3.50
2018-08-23T22:52:11.822Z,2.40
2018-08-23T22:54:40.133Z,2.63
2018-08-23T22:57:08.385Z,3.13
2018-08-23T22:59:36.623Z,3.00
2018-08-23T23:02:04.959Z,2.93
2018-08-23T23:04:33.218Z,3.30
2018-08-23T23:07:05.714Z,3.20
2018-08-23T23:09:33.983Z,2.77
2018-08-23T23:12:02.288Z,3.00
2018-08-23T23:14:30.509Z,2.20
2018-08-23T23:16:58.808Z,3.03
2018-08-23T23:19:27.295Z,2.80
2018-08-23T23:21:55.575Z,2.90
2018-08-23T23:24:29.164Z,3.60
2018-08-23T23:26:57.427Z,2.70
2018-08-23T23:29:25.846Z,3.57
2018-08-23T23:31:54.166Z,3.20
2018-08-23T23:34:22.472Z,3.00
2018-08-23T23:36:50.844Z,2.97
2018-08-23T23:39:19.208Z,2.23
2018-08-23T23:41:47.503Z,3.03
2018-08-23T23:44:15.887Z,2.20
2018-08-23T23:46:44.175Z,3.30
2018-08-23T23:49:12.604Z,3.53
2018-08-23T23:51:41.347Z,3.57
2018-08-23T23:54:09.767Z,3.40
2018-08-23T23:56:38.038Z,2.43
2018-08-23T23:59:06.661Z,3.83
